sensor_id;sensor_type;location;lat;lon;timestamp;temperature;humidity
41557;DHT22;27720;51.992;5.890;2024-03-02T00:01:23;10.70;96.00
41557;DHT22;27720;51.992;5.890;2024-03-02T00:03:49;10.70;96.00
41557;DHT22;27720;51.992;5.890;2024-03-02T00:06:15;10.70;95.90
41557;DHT22;27720;51.992;5.890;2024-03-02T00:08:44;10.70;95.90
41557;DHT22;27720;51.992;5.890;2024-03-02T00:11:10;10.70;96.00
41557;DHT22;27720;51.992;5.890;2024-03-02T00:13:37;10.80;96.00
41557;DHT22;27720;51.992;5.890;2024-03-02T00:16:03;10.80;96.00
41557;DHT22;27720;51.992;5.890;2024-03-02T00:18:34;10.80;96.10
41557;DHT22;27720;51.992;5.890;2024-03-02T00:21:01;10.80;96.00
41557;DHT22;27720;51.992;5.890;2024-03-02T00:23:30;10.80;96.00
41557;DHT22;27720;51.992;5.890;2024-03-02T00:25:56;10.80;96.10
41557;DHT22;27720;51.992;5.890;2024-03-02T00:28:33;10.80;96.10
41557;DHT22;27720;51.992;5.890;2024-03-02T00:31:06;10.80;96.20
41557;DHT22;27720;51.992;5.890;2024-03-02T00:36:09;10.80;96.00
41557;DHT22;27720;51.992;5.890;2024-03-02T00:38:46;10.80;96.10
41557;DHT22;27720;51.992;5.890;2024-03-02T00:41:19;10.80;96.00
41557;DHT22;27720;51.992;5.890;2024-03-02T00:44:06;10.70;96.00
41557;DHT22;27720;51.992;5.890;2024-03-02T00:46:37;10.70;96.00
41557;DHT22;27720;51.992;5.890;2024-03-02T00:49:24;10.80;96.10
41557;DHT22;27720;51.992;5.890;2024-03-02T00:51:50;10.70;96.00
41557;DHT22;27720;51.992;5.890;2024-03-02T00:54:25;10.80;95.80
41557;DHT22;27720;51.992;5.890;2024-03-02T00:56:52;10.80;96.00
41557;DHT22;27720;51.992;5.890;2024-03-02T00:59:18;10.80;96.10
41557;DHT22;27720;51.992;5.890;2024-03-02T01:01:44;10.80;96.10
41557;DHT22;27720;51.992;5.890;2024-03-02T01:04:09;10.80;96.10
41557;DHT22;27720;51.992;5.890;2024-03-02T01:06:36;10.80;96.10
41557;DHT22;27720;51.992;5.890;2024-03-02T01:09:02;10.80;96.20
41557;DHT22;27720;51.992;5.890;2024-03-02T01:11:28;10.80;96.50
41557;DHT22;27720;51.992;5.890;2024-03-02T01:13:55;10.90;96.30
41557;DHT22;27720;51.992;5.890;2024-03-02T01:16:21;10.90;96.20
41557;DHT22;27720;51.992;5.890;2024-03-02T01:18:46;10.80;96.30
41557;DHT22;27720;51.992;5.890;2024-03-02T01:21:12;10.90;96.30
41557;DHT22;27720;51.992;5.890;2024-03-02T01:23:38;10.80;96.30
41557;DHT22;27720;51.992;5.890;2024-03-02T01:26:04;10.90;96.40
41557;DHT22;27720;51.992;5.890;2024-03-02T01:28:30;10.80;96.40
41557;DHT22;27720;51.992;5.890;2024-03-02T01:30:55;10.90;96.50
41557;DHT22;27720;51.992;5.890;2024-03-02T01:33:21;10.90;96.40
41557;DHT22;27720;51.992;5.890;2024-03-02T01:35:47;10.80;96.50
41557;DHT22;27720;51.992;5.890;2024-03-02T01:38:13;10.90;96.50
41557;DHT22;27720;51.992;5.890;2024-03-02T01:40:39;10.90;96.60
41557;DHT22;27720;51.992;5.890;2024-03-02T01:43:05;10.90;96.60
41557;DHT22;27720;51.992;5.890;2024-03-02T01:45:31;10.80;96.90
41557;DHT22;27720;51.992;5.890;2024-03-02T01:47:58;10.80;96.70
41557;DHT22;27720;51.992;5.890;2024-03-02T01:50:34;10.90;96.70
41557;DHT22;27720;51.992;5.890;2024-03-02T01:53:02;10.80;96.80
41557;DHT22;27720;51.992;5.890;2024-03-02T01:55:28;10.80;96.90
41557;DHT22;27720;51.992;5.890;2024-03-02T01:57:55;10.80;97.20
41557;DHT22;27720;51.992;5.890;2024-03-02T02:00:21;10.80;97.00
41557;DHT22;27720;51.992;5.890;2024-03-02T02:02:48;10.80;97.10
41557;DHT22;27720;51.992;5.890;2024-03-02T02:05:14;10.80;97.10
41557;DHT22;27720;51.992;5.890;2024-03-02T02:07:41;10.80;97.20
41557;DHT22;27720;51.992;5.890;2024-03-02T02:10:07;10.90;97.20
41557;DHT22;27720;51.992;5.890;2024-03-02T02:12:33;10.90;97.30
41557;DHT22;27720;51.992;5.890;2024-03-02T02:14:59;10.80;97.30
41557;DHT22;27720;51.992;5.890;2024-03-02T02:17:25;10.80;97.30
41557;DHT22;27720;51.992;5.890;2024-03-02T02:19:50;10.80;97.40
41557;DHT22;27720;51.992;5.890;2024-03-02T02:22:16;10.80;97.40
41557;DHT22;27720;51.992;5.890;2024-03-02T02:24:42;10.80;97.40
41557;DHT22;27720;51.992;5.890;2024-03-02T02:27:08;10.80;97.50
41557;DHT22;27720;51.992;5.890;2024-03-02T02:29:34;10.70;97.60
41557;DHT22;27720;51.992;5.890;2024-03-02T02:32:00;10.80;97.60
41557;DHT22;27720;51.992;5.890;2024-03-02T02:34:26;10.80;97.60
41557;DHT22;27720;51.992;5.890;2024-03-02T02:36:52;10.70;97.60
41557;DHT22;27720;51.992;5.890;2024-03-02T02:39:22;10.80;97.70
41557;DHT22;27720;51.992;5.890;2024-03-02T02:41:48;10.70;97.70
41557;DHT22;27720;51.992;5.890;2024-03-02T02:44:14;10.70;97.70
41557;DHT22;27720;51.992;5.890;2024-03-02T02:46:40;10.70;97.80
41557;DHT22;27720;51.992;5.890;2024-03-02T02:49:06;10.60;97.90
41557;DHT22;27720;51.992;5.890;2024-03-02T02:51:32;10.70;97.90
41557;DHT22;27720;51.992;5.890;2024-03-02T02:53:58;10.70;97.90
41557;DHT22;27720;51.992;5.890;2024-03-02T02:56:24;10.70;97.90
41557;DHT22;27720;51.992;5.890;2024-03-02T02:58:49;10.70;97.90
41557;DHT22;27720;51.992;5.890;2024-03-02T03:01:18;10.70;97.90
41557;DHT22;27720;51.992;5.890;2024-03-02T03:03:44;10.70;98.00
41557;DHT22;27720;51.992;5.890;2024-03-02T03:06:11;10.70;98.00
41557;DHT22;27720;51.992;5.890;2024-03-02T03:08:37;10.70;98.10
41557;DHT22;27720;51.992;5.890;2024-03-02T03:11:03;10.70;98.10
41557;DHT22;27720;51.992;5.890;2024-03-02T03:13:29;10.70;98.10
41557;DHT22;27720;51.992;5.890;2024-03-02T03:15:54;10.60;98.00
41557;DHT22;27720;51.992;5.890;2024-03-02T03:18:20;10.60;98.10
41557;DHT22;27720;51.992;5.890;2024-03-02T03:20:46;10.50;98.20
41557;DHT22;27720;51.992;5.890;2024-03-02T03:23:12;10.50;98.30
41557;DHT22;27720;51.992;5.890;2024-03-02T03:25:44;10.50;98.40
41557;DHT22;27720;51.992;5.890;2024-03-02T03:28:09;10.40;98.40
41557;DHT22;27720;51.992;5.890;2024-03-02T03:30:38;10.40;98.40
41557;DHT22;27720;51.992;5.890;2024-03-02T03:33:04;10.40;98.40
41557;DHT22;27720;51.992;5.890;2024-03-02T03:35:32;10.40;98.50
41557;DHT22;27720;51.992;5.890;2024-03-02T03:37:57;10.40;98.60
41557;DHT22;27720;51.992;5.890;2024-03-02T03:40:23;10.30;98.60
41557;DHT22;27720;51.992;5.890;2024-03-02T03:42:48;10.20;98.70
41557;DHT22;27720;51.992;5.890;2024-03-02T03:45:16;10.20;98.70
41557;DHT22;27720;51.992;5.890;2024-03-02T03:47:42;10.20;98.70
41557;DHT22;27720;51.992;5.890;2024-03-02T03:50:07;10.30;98.80
41557;DHT22;27720;51.992;5.890;2024-03-02T03:52:33;10.30;98.80
41557;DHT22;27720;51.992;5.890;2024-03-02T03:54:59;10.20;98.80
41557;DHT22;27720;51.992;5.890;2024-03-02T03:57:26;10.20;98.90
41557;DHT22;27720;51.992;5.890;2024-03-02T03:59:52;10.30;98.90
41557;DHT22;27720;51.992;5.890;2024-03-02T04:02:18;10.20;99.00
41557;DHT22;27720;51.992;5.890;2024-03-02T04:04:44;10.20;99.30
41557;DHT22;27720;51.992;5.890;2024-03-02T04:07:10;10.20;99.00
41557;DHT22;27720;51.992;5.890;2024-03-02T04:09:35;10.20;99.00
41557;DHT22;27720;51.992;5.890;2024-03-02T04:12:01;10.20;99.00
41557;DHT22;27720;51.992;5.890;2024-03-02T04:14:27;10.20;99.00
41557;DHT22;27720;51.992;5.890;2024-03-02T04:16:52;10.20;99.10
41557;DHT22;27720;51.992;5.890;2024-03-02T04:19:18;10.20;99.20
41557;DHT22;27720;51.992;5.890;2024-03-02T04:21:44;10.10;99.20
41557;DHT22;27720;51.992;5.890;2024-03-02T04:24:09;10.10;99.30
41557;DHT22;27720;51.992;5.890;2024-03-02T04:26:35;10.10;99.30
41557;DHT22;27720;51.992;5.890;2024-03-02T04:29:01;10.10;99.40
41557;DHT22;27720;51.992;5.890;2024-03-02T04:31:27;10.10;99.40
41557;DHT22;27720;51.992;5.890;2024-03-02T04:33:53;10.10;99.40
41557;DHT22;27720;51.992;5.890;2024-03-02T04:36:19;10.10;99.40
41557;DHT22;27720;51.992;5.890;2024-03-02T04:38:46;10.10;99.40
41557;DHT22;27720;51.992;5.890;2024-03-02T04:41:12;10.10;99.50
41557;DHT22;27720;51.992;5.890;2024-03-02T04:43:38;10.10;99.50
41557;DHT22;27720;51.992;5.890;2024-03-02T04:46:04;10.10;99.60
41557;DHT22;27720;51.992;5.890;2024-03-02T04:48:31;10.10;99.50
41557;DHT22;27720;51.992;5.890;2024-03-02T04:50:56;10.10;99.50
41557;DHT22;27720;51.992;5.890;2024-03-02T04:53:22;10.10;99.60
41557;DHT22;27720;51.992;5.890;2024-03-02T04:55:48;10.10;99.60
41557;DHT22;27720;51.992;5.890;2024-03-02T04:58:19;10.10;99.60
41557;DHT22;27720;51.992;5.890;2024-03-02T05:00:45;10.10;99.60
41557;DHT22;27720;51.992;5.890;2024-03-02T05:03:12;10.10;99.50
41557;DHT22;27720;51.992;5.890;2024-03-02T05:05:38;10.10;99.50
41557;DHT22;27720;51.992;5.890;2024-03-02T05:08:04;10.10;99.60
41557;DHT22;27720;51.992;5.890;2024-03-02T05:10:30;10.00;99.60
41557;DHT22;27720;51.992;5.890;2024-03-02T05:12:56;10.00;99.70
41557;DHT22;27720;51.992;5.890;2024-03-02T05:15:25;9.90;99.80
41557;DHT22;27720;51.992;5.890;2024-03-02T05:17:51;9.80;99.90
41557;DHT22;27720;51.992;5.890;2024-03-02T05:20:17;9.80;99.90
41557;DHT22;27720;51.992;5.890;2024-03-02T05:22:42;9.80;99.90
41557;DHT22;27720;51.992;5.890;2024-03-02T05:25:08;9.80;99.90
41557;DHT22;27720;51.992;5.890;2024-03-02T05:27:36;9.80;99.90
41557;DHT22;27720;51.992;5.890;2024-03-02T05:30:02;9.80;99.90
41557;DHT22;27720;51.992;5.890;2024-03-02T05:32:27;9.70;99.90
41557;DHT22;27720;51.992;5.890;2024-03-02T05:34:53;9.70;99.90
41557;DHT22;27720;51.992;5.890;2024-03-02T05:37:20;9.70;99.90
41557;DHT22;27720;51.992;5.890;2024-03-02T05:39:46;9.70;99.90
41557;DHT22;27720;51.992;5.890;2024-03-02T05:42:11;9.70;99.90
41557;DHT22;27720;51.992;5.890;2024-03-02T05:44:37;9.70;99.90
41557;DHT22;27720;51.992;5.890;2024-03-02T05:47:03;9.70;99.90
41557;DHT22;27720;51.992;5.890;2024-03-02T05:49:29;9.70;99.90
41557;DHT22;27720;51.992;5.890;2024-03-02T05:51:55;9.70;99.90
41557;DHT22;27720;51.992;5.890;2024-03-02T05:54:21;9.70;99.90
41557;DHT22;27720;51.992;5.890;2024-03-02T05:56:47;9.70;99.90
41557;DHT22;27720;51.992;5.890;2024-03-02T05:59:12;9.70;99.90
41557;DHT22;27720;51.992;5.890;2024-03-02T06:01:48;9.60;99.90
41557;DHT22;27720;51.992;5.890;2024-03-02T06:04:16;9.60;99.90
41557;DHT22;27720;51.992;5.890;2024-03-02T06:06:45;9.60;99.90
41557;DHT22;27720;51.992;5.890;2024-03-02T06:09:10;9.60;99.90
41557;DHT22;27720;51.992;5.890;2024-03-02T06:11:40;9.50;99.90
41557;DHT22;27720;51.992;5.890;2024-03-02T06:14:07;9.50;99.90
41557;DHT22;27720;51.992;5.890;2024-03-02T06:16:34;9.50;99.90
41557;DHT22;27720;51.992;5.890;2024-03-02T06:19:00;9.50;99.90
41557;DHT22;27720;51.992;5.890;2024-03-02T06:21:26;9.50;99.90
41557;DHT22;27720;51.992;5.890;2024-03-02T06:23:51;9.50;99.90
41557;DHT22;27720;51.992;5.890;2024-03-02T06:26:17;9.50;99.90
41557;DHT22;27720;51.992;5.890;2024-03-02T06:28:44;9.50;99.90
41557;DHT22;27720;51.992;5.890;2024-03-02T06:31:09;9.50;99.90
41557;DHT22;27720;51.992;5.890;2024-03-02T06:33:35;9.50;99.90
41557;DHT22;27720;51.992;5.890;2024-03-02T06:36:01;9.40;99.90
41557;DHT22;27720;51.992;5.890;2024-03-02T06:38:27;9.40;99.90
41557;DHT22;27720;51.992;5.890;2024-03-02T06:40:53;9.40;99.90
41557;DHT22;27720;51.992;5.890;2024-03-02T06:43:20;9.40;99.90
41557;DHT22;27720;51.992;5.890;2024-03-02T06:45:52;9.40;99.90
41557;DHT22;27720;51.992;5.890;2024-03-02T06:48:18;9.40;99.90
41557;DHT22;27720;51.992;5.890;2024-03-02T06:50:49;9.40;99.90
41557;DHT22;27720;51.992;5.890;2024-03-02T06:53:16;9.40;99.90
41557;DHT22;27720;51.992;5.890;2024-03-02T06:55:45;9.40;99.90
41557;DHT22;27720;51.992;5.890;2024-03-02T06:58:12;9.40;99.90
41557;DHT22;27720;51.992;5.890;2024-03-02T07:00:38;9.40;99.90
41557;DHT22;27720;51.992;5.890;2024-03-02T07:03:04;9.40;99.90
41557;DHT22;27720;51.992;5.890;2024-03-02T07:05:30;9.50;99.90
41557;DHT22;27720;51.992;5.890;2024-03-02T07:07:55;9.50;99.90
41557;DHT22;27720;51.992;5.890;2024-03-02T07:10:21;9.50;99.90
41557;DHT22;27720;51.992;5.890;2024-03-02T07:12:47;9.50;99.90
41557;DHT22;27720;51.992;5.890;2024-03-02T07:15:12;9.60;99.90
41557;DHT22;27720;51.992;5.890;2024-03-02T07:18:08;9.50;99.90
41557;DHT22;27720;51.992;5.890;2024-03-02T07:20:34;9.60;99.90
41557;DHT22;27720;51.992;5.890;2024-03-02T07:23:02;9.50;99.90
41557;DHT22;27720;51.992;5.890;2024-03-02T07:25:28;9.60;99.90
41557;DHT22;27720;51.992;5.890;2024-03-02T07:27:53;9.60;99.90
41557;DHT22;27720;51.992;5.890;2024-03-02T07:30:19;9.60;99.90
41557;DHT22;27720;51.992;5.890;2024-03-02T07:32:45;9.60;99.90
41557;DHT22;27720;51.992;5.890;2024-03-02T07:35:12;9.60;99.90
41557;DHT22;27720;51.992;5.890;2024-03-02T07:37:39;9.60;99.90
41557;DHT22;27720;51.992;5.890;2024-03-02T07:40:05;9.60;99.90
41557;DHT22;27720;51.992;5.890;2024-03-02T07:42:34;9.60;99.90
41557;DHT22;27720;51.992;5.890;2024-03-02T07:45:00;9.60;99.90
41557;DHT22;27720;51.992;5.890;2024-03-02T07:47:26;9.60;99.90
41557;DHT22;27720;51.992;5.890;2024-03-02T07:49:51;9.70;99.90
41557;DHT22;27720;51.992;5.890;2024-03-02T07:52:17;9.70;99.90
41557;DHT22;27720;51.992;5.890;2024-03-02T07:54:43;9.70;99.90
41557;DHT22;27720;51.992;5.890;2024-03-02T07:57:09;9.80;99.90
41557;DHT22;27720;51.992;5.890;2024-03-02T07:59:36;9.80;99.90
41557;DHT22;27720;51.992;5.890;2024-03-02T08:02:02;9.90;99.90
41557;DHT22;27720;51.992;5.890;2024-03-02T08:04:28;9.90;99.90
41557;DHT22;27720;51.992;5.890;2024-03-02T08:06:54;10.00;99.90
41557;DHT22;27720;51.992;5.890;2024-03-02T08:09:20;10.00;99.90
41557;DHT22;27720;51.992;5.890;2024-03-02T08:11:45;10.10;99.90
41557;DHT22;27720;51.992;5.890;2024-03-02T08:14:11;10.20;99.90
41557;DHT22;27720;51.992;5.890;2024-03-02T08:16:37;10.20;99.90
41557;DHT22;27720;51.992;5.890;2024-03-02T08:19:02;10.30;99.90
41557;DHT22;27720;51.992;5.890;2024-03-02T08:21:28;10.40;99.90
41557;DHT22;27720;51.992;5.890;2024-03-02T08:23:57;10.40;99.90
41557;DHT22;27720;51.992;5.890;2024-03-02T08:26:23;10.50;99.90
41557;DHT22;27720;51.992;5.890;2024-03-02T08:28:49;10.50;99.90
41557;DHT22;27720;51.992;5.890;2024-03-02T08:31:15;10.60;99.90
41557;DHT22;27720;51.992;5.890;2024-03-02T08:33:41;10.70;99.90
41557;DHT22;27720;51.992;5.890;2024-03-02T08:36:07;10.70;99.90
41557;DHT22;27720;51.992;5.890;2024-03-02T08:38:35;10.80;99.90
41557;DHT22;27720;51.992;5.890;2024-03-02T08:41:01;10.80;99.90
41557;DHT22;27720;51.992;5.890;2024-03-02T08:43:26;10.80;99.90
41557;DHT22;27720;51.992;5.890;2024-03-02T08:45:52;10.90;99.90
41557;DHT22;27720;51.992;5.890;2024-03-02T08:48:18;11.00;99.90
41557;DHT22;27720;51.992;5.890;2024-03-02T08:50:43;11.10;99.90
41557;DHT22;27720;51.992;5.890;2024-03-02T08:53:09;11.20;99.90
41557;DHT22;27720;51.992;5.890;2024-03-02T08:55:34;11.20;99.90
41557;DHT22;27720;51.992;5.890;2024-03-02T08:58:00;11.30;99.90
41557;DHT22;27720;51.992;5.890;2024-03-02T09:00:26;11.40;99.90
41557;DHT22;27720;51.992;5.890;2024-03-02T09:02:52;11.40;99.90
41557;DHT22;27720;51.992;5.890;2024-03-02T09:05:17;11.60;99.90
41557;DHT22;27720;51.992;5.890;2024-03-02T09:07:43;11.60;99.60
41557;DHT22;27720;51.992;5.890;2024-03-02T09:10:09;11.60;99.50
41557;DHT22;27720;51.992;5.890;2024-03-02T09:12:35;11.70;99.50
41557;DHT22;27720;51.992;5.890;2024-03-02T09:15:02;11.70;99.60
41557;DHT22;27720;51.992;5.890;2024-03-02T09:17:31;11.80;99.40
41557;DHT22;27720;51.992;5.890;2024-03-02T09:19:57;11.90;99.30
41557;DHT22;27720;51.992;5.890;2024-03-02T09:22:23;11.90;99.40
41557;DHT22;27720;51.992;5.890;2024-03-02T09:24:48;12.00;99.00
41557;DHT22;27720;51.992;5.890;2024-03-02T09:27:14;12.00;99.10
41557;DHT22;27720;51.992;5.890;2024-03-02T09:29:40;12.10;99.10
41557;DHT22;27720;51.992;5.890;2024-03-02T09:32:07;12.20;99.10
41557;DHT22;27720;51.992;5.890;2024-03-02T09:34:32;12.30;99.10
41557;DHT22;27720;51.992;5.890;2024-03-02T09:36:58;12.40;98.50
41557;DHT22;27720;51.992;5.890;2024-03-02T09:39:24;12.40;98.70
41557;DHT22;27720;51.992;5.890;2024-03-02T09:41:53;12.50;98.70
41557;DHT22;27720;51.992;5.890;2024-03-02T09:44:19;12.50;98.40
41557;DHT22;27720;51.992;5.890;2024-03-02T09:46:49;12.50;98.20
41557;DHT22;27720;51.992;5.890;2024-03-02T09:49:15;12.50;98.00
41557;DHT22;27720;51.992;5.890;2024-03-02T09:51:40;12.50;98.10
41557;DHT22;27720;51.992;5.890;2024-03-02T09:54:13;12.50;97.70
41557;DHT22;27720;51.992;5.890;2024-03-02T09:56:39;12.50;97.70
41557;DHT22;27720;51.992;5.890;2024-03-02T09:59:04;12.50;97.60
41557;DHT22;27720;51.992;5.890;2024-03-02T10:01:31;12.60;97.50
41557;DHT22;27720;51.992;5.890;2024-03-02T10:03:59;12.70;97.20
41557;DHT22;27720;51.992;5.890;2024-03-02T10:06:26;12.70;97.00
41557;DHT22;27720;51.992;5.890;2024-03-02T10:08:53;12.80;97.20
41557;DHT22;27720;51.992;5.890;2024-03-02T10:11:34;12.90;96.80
41557;DHT22;27720;51.992;5.890;2024-03-02T10:16:41;13.10;97.00
41557;DHT22;27720;51.992;5.890;2024-03-02T10:19:20;13.30;97.00
41557;DHT22;27720;51.992;5.890;2024-03-02T10:21:47;13.40;96.70
41557;DHT22;27720;51.992;5.890;2024-03-02T10:24:12;13.50;96.10
41557;DHT22;27720;51.992;5.890;2024-03-02T10:26:39;13.40;95.10
41557;DHT22;27720;51.992;5.890;2024-03-02T10:29:04;13.40;95.20
41557;DHT22;27720;51.992;5.890;2024-03-02T10:31:30;13.50;95.40
41557;DHT22;27720;51.992;5.890;2024-03-02T10:33:57;13.50;95.40
41557;DHT22;27720;51.992;5.890;2024-03-02T10:36:23;13.60;95.20
41557;DHT22;27720;51.992;5.890;2024-03-02T10:38:55;13.70;95.00
41557;DHT22;27720;51.992;5.890;2024-03-02T10:41:26;13.80;94.80
41557;DHT22;27720;51.992;5.890;2024-03-02T10:43:53;13.80;94.70
41557;DHT22;27720;51.992;5.890;2024-03-02T10:46:35;13.90;94.60
41557;DHT22;27720;51.992;5.890;2024-03-02T10:49:03;14.00;94.80
41557;DHT22;27720;51.992;5.890;2024-03-02T10:51:31;14.10;94.90
41557;DHT22;27720;51.992;5.890;2024-03-02T10:54:02;14.30;94.30
41557;DHT22;27720;51.992;5.890;2024-03-02T10:56:38;14.40;94.50
41557;DHT22;27720;51.992;5.890;2024-03-02T11:01:50;14.70;94.70
41557;DHT22;27720;51.992;5.890;2024-03-02T11:04:18;14.80;94.10
41557;DHT22;27720;51.992;5.890;2024-03-02T11:06:51;14.90;94.10
41557;DHT22;27720;51.992;5.890;2024-03-02T11:09:20;14.90;94.20
41557;DHT22;27720;51.992;5.890;2024-03-02T11:11:53;15.00;93.40
41557;DHT22;27720;51.992;5.890;2024-03-02T11:14:24;15.00;93.20
41557;DHT22;27720;51.992;5.890;2024-03-02T11:16:51;15.00;93.00
41557;DHT22;27720;51.992;5.890;2024-03-02T11:19:18;15.10;92.90
41557;DHT22;27720;51.992;5.890;2024-03-02T11:21:44;15.10;92.90
41557;DHT22;27720;51.992;5.890;2024-03-02T11:26:53;15.30;92.80
41557;DHT22;27720;51.992;5.890;2024-03-02T11:32:05;15.60;92.40
41557;DHT22;27720;51.992;5.890;2024-03-02T11:34:35;15.70;92.30
41557;DHT22;27720;51.992;5.890;2024-03-02T11:37:02;15.80;92.00
41557;DHT22;27720;51.992;5.890;2024-03-02T11:39:28;15.80;92.00
41557;DHT22;27720;51.992;5.890;2024-03-02T11:41:57;16.00;92.10
41557;DHT22;27720;51.992;5.890;2024-03-02T11:44:27;16.10;91.50
41557;DHT22;27720;51.992;5.890;2024-03-02T11:47:00;16.20;90.90
41557;DHT22;27720;51.992;5.890;2024-03-02T11:52:05;16.30;90.50
41557;DHT22;27720;51.992;5.890;2024-03-02T11:54:33;16.40;90.10
41557;DHT22;27720;51.992;5.890;2024-03-02T11:57:02;16.50;90.00
41557;DHT22;27720;51.992;5.890;2024-03-02T11:59:29;16.60;90.00
41557;DHT22;27720;51.992;5.890;2024-03-02T12:01:59;16.70;89.90
41557;DHT22;27720;51.992;5.890;2024-03-02T12:04:26;16.80;89.30
41557;DHT22;27720;51.992;5.890;2024-03-02T12:07:10;16.90;89.00
41557;DHT22;27720;51.992;5.890;2024-03-02T12:09:35;16.90;89.20
41557;DHT22;27720;51.992;5.890;2024-03-02T12:12:06;17.00;88.00
41557;DHT22;27720;51.992;5.890;2024-03-02T12:14:32;17.10;87.80
41557;DHT22;27720;51.992;5.890;2024-03-02T12:16:58;17.20;87.90
41557;DHT22;27720;51.992;5.890;2024-03-02T12:19:27;17.30;87.30
41557;DHT22;27720;51.992;5.890;2024-03-02T12:21:56;17.40;85.50
41557;DHT22;27720;51.992;5.890;2024-03-02T12:24:22;17.30;83.30
41557;DHT22;27720;51.992;5.890;2024-03-02T12:26:52;17.10;82.50
41557;DHT22;27720;51.992;5.890;2024-03-02T12:29:19;17.10;83.40
41557;DHT22;27720;51.992;5.890;2024-03-02T12:31:48;17.10;81.90
41557;DHT22;27720;51.992;5.890;2024-03-02T12:34:14;17.10;82.00
41557;DHT22;27720;51.992;5.890;2024-03-02T12:36:40;17.10;81.70
41557;DHT22;27720;51.992;5.890;2024-03-02T12:39:09;17.10;81.60
41557;DHT22;27720;51.992;5.890;2024-03-02T12:41:38;17.20;82.20
41557;DHT22;27720;51.992;5.890;2024-03-02T12:44:05;17.40;81.90
41557;DHT22;27720;51.992;5.890;2024-03-02T12:46:31;17.40;80.50
41557;DHT22;27720;51.992;5.890;2024-03-02T12:48:58;17.30;79.40
41557;DHT22;27720;51.992;5.890;2024-03-02T12:51:24;17.30;80.10
41557;DHT22;27720;51.992;5.890;2024-03-02T12:53:59;17.30;80.50
41557;DHT22;27720;51.992;5.890;2024-03-02T12:56:25;17.50;80.80
41557;DHT22;27720;51.992;5.890;2024-03-02T12:58:55;17.60;80.00
41557;DHT22;27720;51.992;5.890;2024-03-02T13:01:20;17.70;80.20
41557;DHT22;27720;51.992;5.890;2024-03-02T13:03:49;17.80;79.30
41557;DHT22;27720;51.992;5.890;2024-03-02T13:06:17;17.80;79.40
41557;DHT22;27720;51.992;5.890;2024-03-02T13:08:42;17.90;79.40
41557;DHT22;27720;51.992;5.890;2024-03-02T13:11:08;18.00;79.40
41557;DHT22;27720;51.992;5.890;2024-03-02T13:13:35;18.20;78.90
41557;DHT22;27720;51.992;5.890;2024-03-02T13:16:01;18.20;78.50
41557;DHT22;27720;51.992;5.890;2024-03-02T13:18:28;18.10;77.90
41557;DHT22;27720;51.992;5.890;2024-03-02T13:20:54;18.10;78.50
41557;DHT22;27720;51.992;5.890;2024-03-02T13:23:21;18.10;77.80
41557;DHT22;27720;51.992;5.890;2024-03-02T13:25:47;18.20;78.20
41557;DHT22;27720;51.992;5.890;2024-03-02T13:28:13;18.20;77.80
41557;DHT22;27720;51.992;5.890;2024-03-02T13:30:39;18.20;77.80
41557;DHT22;27720;51.992;5.890;2024-03-02T13:33:05;18.20;77.70
41557;DHT22;27720;51.992;5.890;2024-03-02T13:35:30;18.20;77.50
41557;DHT22;27720;51.992;5.890;2024-03-02T13:37:56;18.20;77.60
41557;DHT22;27720;51.992;5.890;2024-03-02T13:40:22;18.30;76.80
41557;DHT22;27720;51.992;5.890;2024-03-02T13:42:49;18.30;77.00
41557;DHT22;27720;51.992;5.890;2024-03-02T13:45:17;18.40;76.90
41557;DHT22;27720;51.992;5.890;2024-03-02T13:47:44;18.40;76.10
41557;DHT22;27720;51.992;5.890;2024-03-02T13:50:12;18.40;75.20
41557;DHT22;27720;51.992;5.890;2024-03-02T13:52:38;18.40;75.60
41557;DHT22;27720;51.992;5.890;2024-03-02T13:55:04;18.30;75.20
41557;DHT22;27720;51.992;5.890;2024-03-02T13:57:30;18.20;74.90
41557;DHT22;27720;51.992;5.890;2024-03-02T13:59:56;18.20;75.00
41557;DHT22;27720;51.992;5.890;2024-03-02T14:02:22;18.10;75.30
41557;DHT22;27720;51.992;5.890;2024-03-02T14:04:48;18.00;75.20
41557;DHT22;27720;51.992;5.890;2024-03-02T14:07:15;17.90;74.60
41557;DHT22;27720;51.992;5.890;2024-03-02T14:09:40;17.80;74.70
41557;DHT22;27720;51.992;5.890;2024-03-02T14:12:07;17.70;74.80
41557;DHT22;27720;51.992;5.890;2024-03-02T14:14:33;17.60;74.70
41557;DHT22;27720;51.992;5.890;2024-03-02T14:16:59;17.50;74.60
41557;DHT22;27720;51.992;5.890;2024-03-02T14:19:32;17.30;75.10
41557;DHT22;27720;51.992;5.890;2024-03-02T14:21:58;17.40;75.40
41557;DHT22;27720;51.992;5.890;2024-03-02T14:24:27;17.30;75.20
41557;DHT22;27720;51.992;5.890;2024-03-02T14:26:54;17.30;75.50
41557;DHT22;27720;51.992;5.890;2024-03-02T14:29:20;17.20;75.00
41557;DHT22;27720;51.992;5.890;2024-03-02T14:31:46;17.10;74.90
41557;DHT22;27720;51.992;5.890;2024-03-02T14:34:14;17.10;75.20
41557;DHT22;27720;51.992;5.890;2024-03-02T14:36:40;17.00;75.20
41557;DHT22;27720;51.992;5.890;2024-03-02T14:39:06;16.90;74.90
41557;DHT22;27720;51.992;5.890;2024-03-02T14:41:36;16.80;75.00
41557;DHT22;27720;51.992;5.890;2024-03-02T14:44:01;16.80;75.40
41557;DHT22;27720;51.992;5.890;2024-03-02T14:46:27;16.70;75.00
41557;DHT22;27720;51.992;5.890;2024-03-02T14:48:53;16.70;75.40
41557;DHT22;27720;51.992;5.890;2024-03-02T14:51:19;16.70;75.50
41557;DHT22;27720;51.992;5.890;2024-03-02T14:53:44;16.50;75.00
41557;DHT22;27720;51.992;5.890;2024-03-02T14:56:10;16.50;75.10
41557;DHT22;27720;51.992;5.890;2024-03-02T14:58:38;16.40;75.30
41557;DHT22;27720;51.992;5.890;2024-03-02T15:01:04;16.40;76.20
41557;DHT22;27720;51.992;5.890;2024-03-02T15:03:34;16.30;75.30
41557;DHT22;27720;51.992;5.890;2024-03-02T15:06:01;16.20;75.60
41557;DHT22;27720;51.992;5.890;2024-03-02T15:08:26;16.20;75.80
41557;DHT22;27720;51.992;5.890;2024-03-02T15:10:52;16.20;76.00
41557;DHT22;27720;51.992;5.890;2024-03-02T15:13:21;16.20;76.30
41557;DHT22;27720;51.992;5.890;2024-03-02T15:15:47;16.20;76.50
41557;DHT22;27720;51.992;5.890;2024-03-02T15:18:13;16.20;76.70
41557;DHT22;27720;51.992;5.890;2024-03-02T15:20:38;16.20;76.90
41557;DHT22;27720;51.992;5.890;2024-03-02T15:23:04;16.20;76.50
41557;DHT22;27720;51.992;5.890;2024-03-02T15:25:29;16.00;76.60
41557;DHT22;27720;51.992;5.890;2024-03-02T15:27:56;16.10;76.90
41557;DHT22;27720;51.992;5.890;2024-03-02T15:30:21;16.00;76.60
41557;DHT22;27720;51.992;5.890;2024-03-02T15:32:47;16.00;76.80
41557;DHT22;27720;51.992;5.890;2024-03-02T15:35:13;16.00;77.00
41557;DHT22;27720;51.992;5.890;2024-03-02T15:37:38;16.00;77.30
41557;DHT22;27720;51.992;5.890;2024-03-02T15:40:05;16.00;77.40
41557;DHT22;27720;51.992;5.890;2024-03-02T15:42:34;16.10;77.60
41557;DHT22;27720;51.992;5.890;2024-03-02T15:45:00;16.10;77.70
41557;DHT22;27720;51.992;5.890;2024-03-02T15:47:26;16.10;77.60